Main page
METAR-TAF:

METAR-TAF

Airports :

Zahedan, Iran

Zahedan Airport

latitude: 29-28N, longitude: 060-53E, elevation: 1370 m

Current weather observation

The report was made 10 minutes ago, at 03:30 UTC
Wind 4 kt from the East
Temperature 17°C
Humidity 27%
Pressure 1022 hPa
Visibility: 6000 m

METAR: OIZH 290330Z 08004KT 6000 NSC 17/M02 Q1021 A3017

Time: 08:10 (03:40 UTC)

Forecast

The report was made 4 hours and 40 minutes ago, at 23:00 UTC
Forecast valid from 29 at 00 UTC to 30 at 06 UTC
Wind 8 kt from the North
Visibility: 8000 m

TAF: OIZH 282300Z 2900/3006 01004MPS 8000 NSC

Weather observations and forecasts of more than 4000 airports (METAR and TAF reports).

The available stations are represented by yellow and red dots on the map.

Hover mouse over dot to see the name of the station.

Then click to see weather observations and forecasts.

To change the map : click on the green buttons with a black cross to zoom in, on the green button with a dash to zoom out, or on the green arrows for adjacent maps.


METAR-TAF: